Terminal Aerodrome Forecast
Issued by NWS

Home | Current Version | Previous Version | Text Only | Print | Product List | Glossary On
Versions: 1 2 3 4 5 6 7 8 9 10 11 12 13 14 15 16 17 18 19 20 21 22 23 24 25 26
000
FTUS46 KSGX 222005 AAA
TAFSAN
TAF AMD
KSAN 222005Z 2220/2324 19008KT P6SM BKN014
      TEMPO 2220/2221 SCT014
     FM222100 21009KT P6SM SCT015
     FM230200 VRB04KT 3SM BR OVC005
     FM231500 VRB04KT P6SM BKN008
     FM231800 VRB06KT P6SM SCT010
     FM231900 30009KT P6SM FEW012=

USA.gov is the U.S. government's official web portal to all federal, state and local government web resources and services.